Time;durP1;ratioP1;P1;durP2;ratioP2;P2;SDS_P1;SDS_P2;PMS_P1;PMS_P2;Temp;Humidity;BMP_temperature;BMP_pressure;BME280_temperature;BME280_humidity;BME280_pressure;Samples;Min_cycle;Max_cycle;Signal;HPM_P1;HPM_P2
2023/10/18 00:01:00;;;;;;;15.23;4.00;;;;;;;;;;5032395;28;20043;-66
2023/10/18 00:03:30;;;;;;;13.52;3.70;;;;;;;;;;5027655;28;21726;-67
2023/10/18 00:05:57;;;;;;;13.43;3.80;;;;;;;;;;5029233;28;20028;-65
2023/10/18 00:08:23;;;;;;;16.55;4.22;;;;;;;;;;5021533;28;20083;-66
2023/10/18 00:10:53;;;;;;;16.35;4.35;;;;;;;;;;5025567;28;20475;-67
2023/10/18 00:13:22;;;;;;;12.98;3.55;;;;;;;;;;5022268;28;20647;-67
2023/10/18 00:15:55;;;;;;;13.10;3.97;;;;;;;;;;5031512;28;20697;-67
2023/10/18 00:18:21;;;;;;;19.88;4.05;;;;;;;;;;5006369;28;20542;-67
2023/10/18 00:20:47;;;;;;;12.73;3.85;;;;;;;;;;5009767;28;20047;-67
2023/10/18 00:23:14;;;;;;;16.08;3.80;;;;;;;;;;5024816;28;20164;-67
2023/10/18 00:25:40;;;;;;;14.10;3.67;;;;;;;;;;5026309;28;20162;-67
2023/10/18 00:28:08;;;;;;;17.80;3.95;;;;;;;;;;5006686;28;20219;-66
2023/10/18 00:30:35;;;;;;;16.10;4.50;;;;;;;;;;5009787;28;20318;-66
2023/10/18 00:33:02;;;;;;;14.95;4.55;;;;;;;;;;5026130;28;20036;-66
2023/10/18 00:35:31;;;;;;;16.20;3.80;;;;;;;;;;5024301;28;20052;-67
2023/10/18 00:37:58;;;;;;;15.50;4.05;;;;;;;;;;5007969;28;20551;-67
2023/10/18 00:42:55;;;;;;;14.18;3.80;;;;;;;;;;5027313;28;20037;-67
2023/10/18 00:45:22;;;;;;;12.15;3.90;;;;;;;;;;5008990;28;20102;-67
2023/10/18 00:47:49;;;;;;;15.35;4.13;;;;;;;;;;5008796;28;20033;-67
2023/10/18 00:50:18;;;;;;;15.85;3.88;;;;;;;;;;5020438;28;20025;-66
2023/10/18 00:52:44;;;;;;;15.35;4.13;;;;;;;;;;5027852;28;20196;-65
2023/10/18 00:55:11;;;;;;;17.10;3.95;;;;;;;;;;5023097;28;20094;-66
2023/10/18 00:57:37;;;;;;;16.67;3.90;;;;;;;;;;5005134;28;20056;-65
2023/10/18 01:00:07;;;;;;;20.45;4.68;;;;;;;;;;5010464;28;20258;-65
2023/10/18 01:02:39;;;;;;;13.82;3.83;;;;;;;;;;5021906;28;20099;-66
2023/10/18 01:05:10;;;;;;;18.05;4.00;;;;;;;;;;5027586;28;20886;-65
2023/10/18 01:07:37;;;;;;;13.70;3.90;;;;;;;;;;5024226;28;20025;-65
2023/10/18 01:10:07;;;;;;;13.93;4.22;;;;;;;;;;5007968;28;20554;-65
2023/10/18 01:12:37;;;;;;;18.85;4.18;;;;;;;;;;5010008;28;20033;-66
2023/10/18 01:15:07;;;;;;;17.63;4.22;;;;;;;;;;5026209;28;20021;-66
2023/10/18 01:17:42;;;;;;;18.83;4.25;;;;;;;;;;5025972;28;20547;-66
2023/10/18 01:20:33;;;;;;;18.10;4.43;;;;;;;;;;5020105;28;20529;-66
2023/10/18 01:22:55;;;;;;;16.25;5.10;;;;;;;;;;5026334;28;20045;-66
2023/10/18 01:25:21;;;;;;;14.95;4.45;;;;;;;;;;5002928;28;20021;-66
2023/10/18 01:27:47;;;;;;;12.85;3.35;;;;;;;;;;5028084;28;20021;-66
2023/10/18 01:30:15;;;;;;;14.00;3.88;;;;;;;;;;5006014;28;20048;-66
2023/10/18 01:32:41;;;;;;;16.17;4.50;;;;;;;;;;5026216;28;20421;-66
2023/10/18 01:35:07;;;;;;;16.60;4.38;;;;;;;;;;5020853;28;20029;-67
2023/10/18 01:37:34;;;;;;;15.68;4.60;;;;;;;;;;5022578;28;20034;-66
2023/10/18 01:40:20;;;;;;;17.85;4.60;;;;;;;;;;5004485;28;20306;-65
2023/10/18 01:42:48;;;;;;;16.42;5.13;;;;;;;;;;5022564;28;20666;-65
2023/10/18 01:45:21;;;;;;;13.50;4.20;;;;;;;;;;5024560;28;20138;-66
2023/10/18 01:47:51;;;;;;;16.98;4.85;;;;;;;;;;5024482;28;20154;-66
2023/10/18 01:50:18;;;;;;;17.92;4.65;;;;;;;;;;5007782;28;20452;-65
2023/10/18 01:52:45;;;;;;;18.02;4.80;;;;;;;;;;5022720;28;20051;-65
2023/10/18 01:55:12;;;;;;;15.52;4.40;;;;;;;;;;5021158;28;20594;-66
2023/10/18 01:57:43;;;;;;;20.42;5.13;;;;;;;;;;5022344;28;20055;-67
2023/10/18 02:00:18;;;;;;;16.85;5.07;;;;;;;;;;5019364;28;20258;-66
2023/10/18 02:02:47;;;;;;;20.10;5.33;;;;;;;;;;5021885;28;20565;-66
2023/10/18 02:05:15;;;;;;;19.88;4.90;;;;;;;;;;5004166;28;20273;-69
2023/10/18 02:07:46;;;;;;;18.80;5.38;;;;;;;;;;5022467;28;20036;-67
2023/10/18 02:10:20;;;;;;;16.55;4.70;;;;;;;;;;5022496;28;20033;-67
2023/10/18 02:12:46;;;;;;;14.38;4.93;;;;;;;;;;5004013;28;20071;-67
2023/10/18 02:15:12;;;;;;;18.13;5.28;;;;;;;;;;5004082;28;20545;-67
2023/10/18 02:17:40;;;;;;;16.80;4.80;;;;;;;;;;5004164;28;20036;-68
2023/10/18 02:20:15;;;;;;;21.10;5.43;;;;;;;;;;5021519;28;20106;-67
2023/10/18 02:22:42;;;;;;;20.38;5.32;;;;;;;;;;5004991;28;20047;-68
2023/10/18 02:25:09;;;;;;;20.20;5.43;;;;;;;;;;5018958;28;20333;-68
2023/10/18 02:27:38;;;;;;;25.25;5.57;;;;;;;;;;5005999;28;20515;-68
2023/10/18 02:30:04;;;;;;;19.45;5.35;;;;;;;;;;5021131;28;20029;-66
2023/10/18 02:32:34;;;;;;;20.73;4.90;;;;;;;;;;5023321;28;20029;-66
2023/10/18 02:35:00;;;;;;;22.27;5.43;;;;;;;;;;5025719;28;20512;-66
2023/10/18 02:37:26;;;;;;;21.35;5.60;;;;;;;;;;5021844;28;21787;-65
2023/10/18 02:40:07;;;;;;;18.65;5.30;;;;;;;;;;5021778;28;20025;-63
2023/10/18 02:42:33;;;;;;;21.52;5.25;;;;;;;;;;5024397;28;20016;-65
2023/10/18 02:45:00;;;;;;;17.83;5.53;;;;;;;;;;5026705;28;20487;-66
2023/10/18 02:47:27;;;;;;;23.73;5.32;;;;;;;;;;5022131;28;20533;-63
2023/10/18 02:49:53;;;;;;;20.73;5.30;;;;;;;;;;5026879;28;20525;-63
2023/10/18 02:52:19;;;;;;;17.77;5.00;;;;;;;;;;5006431;28;20530;-61
2023/10/18 02:54:45;;;;;;;16.40;4.93;;;;;;;;;;5021522;28;20037;-61
2023/10/18 02:57:13;;;;;;;21.70;5.35;;;;;;;;;;5023425;28;20029;-61
2023/10/18 02:59:43;;;;;;;19.75;4.95;;;;;;;;;;5021173;28;20045;-61
2023/10/18 03:02:24;;;;;;;20.70;5.72;;;;;;;;;;5017783;28;20065;-63
2023/10/18 03:04:52;;;;;;;20.15;5.63;;;;;;;;;;5024030;28;20037;-61
2023/10/18 03:07:18;;;;;;;17.63;5.30;;;;;;;;;;5020007;28;20028;-62
2023/10/18 03:09:49;;;;;;;20.17;5.05;;;;;;;;;;5022589;28;20064;-61
2023/10/18 03:12:15;;;;;;;19.85;5.70;;;;;;;;;;5019183;28;20440;-62
2023/10/18 03:14:53;;;;;;;16.38;5.15;;;;;;;;;;5021841;28;20502;-61
2023/10/18 03:17:22;;;;;;;21.95;5.45;;;;;;;;;;5017602;28;20052;-61
2023/10/18 03:19:54;;;;;;;21.63;5.15;;;;;;;;;;5023522;28;20090;-61
2023/10/18 03:22:22;;;;;;;20.58;5.55;;;;;;;;;;5017037;28;20057;-61
2023/10/18 03:24:48;;;;;;;17.77;5.25;;;;;;;;;;5006526;28;20021;-61
2023/10/18 03:27:14;;;;;;;21.77;5.35;;;;;;;;;;5000303;28;20033;-61
2023/10/18 03:29:43;;;;;;;17.38;5.05;;;;;;;;;;5022505;28;20063;-61
2023/10/18 03:32:19;;;;;;;25.45;6.40;;;;;;;;;;5022334;28;20035;-62
2023/10/18 03:34:45;;;;;;;20.23;5.97;;;;;;;;;;5023490;28;20031;-61
2023/10/18 03:37:31;;;;;;;18.13;5.20;;;;;;;;;;5017988;28;20312;-62
2023/10/18 03:40:06;;;;;;;19.85;5.50;;;;;;;;;;5025064;28;20036;-61
2023/10/18 03:42:32;;;;;;;20.23;5.90;;;;;;;;;;5028877;28;20033;-61
2023/10/18 03:45:10;;;;;;;19.02;5.90;;;;;;;;;;5026766;28;20501;-62
2023/10/18 03:47:37;;;;;;;24.08;7.18;;;;;;;;;;5026994;28;20032;-62
2023/10/18 03:50:05;;;;;;;21.67;7.25;;;;;;;;;;5026027;28;20091;-61
2023/10/18 03:52:33;;;;;;;22.27;7.63;;;;;;;;;;5022866;28;20162;-61
2023/10/18 03:55:10;;;;;;;24.58;8.10;;;;;;;;;;5012611;28;20029;-61
2023/10/18 03:57:39;;;;;;;21.77;6.72;;;;;;;;;;5031239;28;20032;-62
2023/10/18 04:02:59;;;;;;;20.33;6.63;;;;;;;;;;5022661;28;20479;-62
2023/10/18 04:08:14;;;;;;;20.40;6.15;;;;;;;;;;5024975;28;20449;-62
2023/10/18 04:10:40;;;;;;;19.20;5.88;;;;;;;;;;5023095;28;20386;-61
2023/10/18 04:13:14;;;;;;;18.17;5.80;;;;;;;;;;5028959;28;20060;-62
2023/10/18 04:15:57;;;;;;;19.88;5.80;;;;;;;;;;5027435;28;20443;-63
2023/10/18 04:18:25;;;;;;;19.08;5.07;;;;;;;;;;5007645;28;20484;-62
2023/10/18 04:20:58;;;;;;;21.60;5.40;;;;;;;;;;5026583;28;20551;-66
2023/10/18 04:23:28;;;;;;;17.98;5.65;;;;;;;;;;5003871;28;20131;-66
2023/10/18 04:25:58;;;;;;;20.25;5.50;;;;;;;;;;5005486;28;20025;-65
2023/10/18 04:28:25;;;;;;;19.42;5.53;;;;;;;;;;5004294;28;20088;-67
2023/10/18 04:30:59;;;;;;;21.48;5.50;;;;;;;;;;5010473;28;20030;-63
2023/10/18 04:33:35;;;;;;;15.93;5.53;;;;;;;;;;5005373;28;20033;-64
2023/10/18 04:36:21;;;;;;;20.67;5.38;;;;;;;;;;4994930;28;20021;-63
2023/10/18 04:38:51;;;;;;;20.48;5.72;;;;;;;;;;5005765;28;20033;-63
2023/10/18 04:43:59;;;;;;;21.45;6.82;;;;;;;;;;5012074;28;20095;-62
2023/10/18 04:46:26;;;;;;;20.02;6.10;;;;;;;;;;4999390;28;20470;-63
2023/10/18 04:54:35;;;;;;;25.63;6.45;;;;;;;;;;5009871;28;20620;-64
2023/10/18 04:57:04;;;;;;;;;;;;;;;;;;5006474;28;20065;-63
2023/10/18 04:59:34;;;;;;;20.92;6.28;;;;;;;;;;5016186;28;19917;-64
2023/10/18 05:02:05;;;;;;;23.77;6.35;;;;;;;;;;5004537;28;20124;-63
2023/10/18 05:04:32;;;;;;;21.20;6.15;;;;;;;;;;4998196;28;20029;-63
2023/10/18 05:07:14;;;;;;;29.13;6.30;;;;;;;;;;5004848;28;20431;-64
2023/10/18 05:09:43;;;;;;;18.98;6.00;;;;;;;;;;5002687;28;20636;-69
2023/10/18 05:12:32;;;;;;;24.02;6.28;;;;;;;;;;4999814;28;20135;-68
2023/10/18 05:17:33;;;;;;;24.63;6.38;;;;;;;;;;5003547;28;20037;-63
2023/10/18 05:20:09;;;;;;;19.40;5.85;;;;;;;;;;5001035;28;20805;-62
2023/10/18 05:22:41;;;;;;;17.83;5.55;;;;;;;;;;5003764;28;20025;-62
2023/10/18 05:27:59;;;;;;;24.45;5.80;;;;;;;;;;5026529;28;20327;-65
2023/10/18 05:30:26;;;;;;;21.42;5.95;;;;;;;;;;5020539;28;20952;-63
2023/10/18 05:35:28;;;;;;;22.92;5.68;;;;;;;;;;5025775;28;20062;-62
2023/10/18 05:37:58;;;;;;;21.38;5.95;;;;;;;;;;5024999;28;20029;-62
2023/10/18 05:45:57;;;;;;;25.40;6.00;;;;;;;;;;5028233;28;20032;-67
2023/10/18 05:48:32;;;;;;;17.88;5.75;;;;;;;;;;5011427;28;20120;-65
2023/10/18 05:53:52;;;;;;;24.13;6.13;;;;;;;;;;5027150;28;20118;-65
2023/10/18 05:56:24;;;;;;;22.35;6.28;;;;;;;;;;5019942;28;20657;-65
2023/10/18 05:59:15;;;;;;;21.27;6.55;;;;;;;;;;5022800;28;20443;-68
2023/10/18 06:01:45;;;;;;;21.83;6.70;;;;;;;;;;5025041;28;20386;-68
2023/10/18 06:04:24;;;;;;;20.27;6.88;;;;;;;;;;5016979;28;20076;-68
2023/10/18 06:06:51;;;;;;;27.92;8.40;;;;;;;;;;5008753;28;20122;-64
2023/10/18 06:09:32;;;;;;;23.02;8.63;;;;;;;;;;5016970;28;20025;-62
2023/10/18 06:12:00;;;;;;;28.50;8.65;;;;;;;;;;5020942;28;20032;-63
2023/10/18 06:14:40;;;;;;;28.70;8.65;;;;;;;;;;5021482;28;22561;-64
2023/10/18 06:17:07;;;;;;;25.60;7.75;;;;;;;;;;5019378;28;20024;-63
2023/10/18 06:19:36;;;;;;;24.08;8.93;;;;;;;;;;5021546;28;20028;-62
2023/10/18 06:24:49;;;;;;;27.10;8.60;;;;;;;;;;5022094;28;20052;-62
2023/10/18 06:27:18;;;;;;;33.63;8.57;;;;;;;;;;5015778;28;20056;-62
2023/10/18 06:29:45;;;;;;;28.25;7.28;;;;;;;;;;5018593;28;20055;-63
2023/10/18 06:32:15;;;;;;;25.17;7.10;;;;;;;;;;5018792;28;20041;-64
2023/10/18 06:34:44;;;;;;;32.53;8.10;;;;;;;;;;5021087;28;20430;-63
2023/10/18 06:37:20;;;;;;;25.20;7.25;;;;;;;;;;5017248;28;20060;-62
2023/10/18 06:39:47;;;;;;;23.10;7.20;;;;;;;;;;5000455;28;20163;-62
2023/10/18 06:42:13;;;;;;;22.85;6.55;;;;;;;;;;5017901;28;20114;-61
2023/10/18 06:44:43;;;;;;;23.17;7.30;;;;;;;;;;5020384;28;20474;-62
2023/10/18 06:47:13;;;;;;;21.08;6.47;;;;;;;;;;5018862;28;20226;-62
2023/10/18 06:49:42;;;;;;;30.13;6.45;;;;;;;;;;5018707;28;20051;-63
2023/10/18 06:52:09;;;;;;;24.08;6.88;;;;;;;;;;5018119;28;20025;-62
2023/10/18 06:54:39;;;;;;;27.80;5.90;;;;;;;;;;5007301;28;20116;-63
2023/10/18 06:57:18;;;;;;;28.17;6.85;;;;;;;;;;5020863;28;20036;-63
2023/10/18 06:59:50;;;;;;;22.38;6.28;;;;;;;;;;5022157;28;20029;-62
2023/10/18 07:02:17;;;;;;;29.17;6.97;;;;;;;;;;5019285;28;20037;-62
2023/10/18 07:04:50;;;;;;;27.17;6.82;;;;;;;;;;5005358;28;20029;-63
2023/10/18 07:07:20;;;;;;;26.05;6.85;;;;;;;;;;5019635;28;20348;-64
2023/10/18 07:09:49;;;;;;;22.10;6.32;;;;;;;;;;5021635;28;20029;-63
2023/10/18 07:12:19;;;;;;;23.35;6.70;;;;;;;;;;5019853;28;20040;-64
2023/10/18 07:14:46;;;;;;;22.17;6.38;;;;;;;;;;5003005;28;20039;-63
2023/10/18 07:17:14;;;;;;;26.33;6.90;;;;;;;;;;5020498;28;20036;-64
2023/10/18 07:19:49;;;;;;;24.65;6.47;;;;;;;;;;5025490;28;20050;-63
2023/10/18 07:22:19;;;;;;;24.23;6.67;;;;;;;;;;5023810;28;20480;-62
2023/10/18 07:24:55;;;;;;;19.67;6.38;;;;;;;;;;5023596;28;20727;-63
2023/10/18 07:27:23;;;;;;;23.58;6.38;;;;;;;;;;5021278;28;20884;-64
2023/10/18 07:29:50;;;;;;;28.08;7.20;;;;;;;;;;5010445;28;20043;-63
2023/10/18 07:32:20;;;;;;;20.63;6.47;;;;;;;;;;5022578;28;20025;-63
2023/10/18 07:34:48;;;;;;;18.65;6.60;;;;;;;;;;5026302;28;20021;-62
2023/10/18 07:37:17;;;;;;;22.48;6.47;;;;;;;;;;5021035;28;20579;-63
2023/10/18 07:39:56;;;;;;;26.48;6.20;;;;;;;;;;5026652;28;20036;-64
2023/10/18 07:42:34;;;;;;;22.23;6.30;;;;;;;;;;5002187;28;20729;-63
2023/10/18 07:45:04;;;;;;;25.85;6.53;;;;;;;;;;5021667;28;20025;-63
2023/10/18 07:47:32;;;;;;;17.05;5.65;;;;;;;;;;5023194;28;20060;-63
2023/10/18 07:50:01;;;;;;;21.30;5.88;;;;;;;;;;5024070;28;20029;-63
2023/10/18 07:52:27;;;;;;;19.35;5.82;;;;;;;;;;5022060;28;20415;-62
2023/10/18 07:54:53;;;;;;;21.48;6.25;;;;;;;;;;5028162;28;20072;-63
2023/10/18 07:57:31;;;;;;;24.08;6.55;;;;;;;;;;5005020;28;20037;-67
2023/10/18 08:00:21;;;;;;;22.00;6.20;;;;;;;;;;5024552;28;20304;-64
2023/10/18 08:02:43;;;;;;;20.05;6.70;;;;;;;;;;5024126;28;20033;-64
2023/10/18 08:05:09;;;;;;;26.63;6.97;;;;;;;;;;5022117;28;20393;-62
2023/10/18 08:07:36;;;;;;;23.40;6.95;;;;;;;;;;5012360;28;20056;-63
2023/10/18 08:10:08;;;;;;;23.23;6.88;;;;;;;;;;5010750;28;20259;-66
2023/10/18 08:12:34;;;;;;;22.98;7.30;;;;;;;;;;5026807;28;20305;-62
2023/10/18 08:15:00;;;;;;;21.33;6.75;;;;;;;;;;5027487;28;20103;-63
2023/10/18 08:17:30;;;;;;;19.48;5.88;;;;;;;;;;5024059;28;20057;-62
2023/10/18 08:19:58;;;;;;;21.35;5.78;;;;;;;;;;5023076;28;20057;-65
2023/10/18 08:22:27;;;;;;;19.58;5.30;;;;;;;;;;5003117;28;20037;-64
2023/10/18 08:24:53;;;;;;;20.55;5.30;;;;;;;;;;5027093;28;20483;-65
2023/10/18 08:27:20;;;;;;;25.02;5.78;;;;;;;;;;5001110;28;20402;-65
2023/10/18 08:29:52;;;;;;;21.58;5.78;;;;;;;;;;5010742;28;20030;-63
2023/10/18 08:32:19;;;;;;;26.98;5.78;;;;;;;;;;5021413;28;20040;-67
2023/10/18 08:34:45;;;;;;;26.13;5.75;;;;;;;;;;5025039;28;20531;-66
2023/10/18 08:37:15;;;;;;;18.00;5.38;;;;;;;;;;5023243;28;20450;-66
2023/10/18 08:39:52;;;;;;;23.63;6.18;;;;;;;;;;5023929;28;20533;-68
2023/10/18 08:42:20;;;;;;;25.98;6.63;;;;;;;;;;5023676;28;20037;-66
2023/10/18 08:44:47;;;;;;;23.60;5.82;;;;;;;;;;5024873;28;20072;-66
2023/10/18 08:47:17;;;;;;;22.50;6.75;;;;;;;;;;5022505;28;20028;-67
2023/10/18 08:49:44;;;;;;;24.38;6.45;;;;;;;;;;5024107;28;20516;-67
2023/10/18 08:52:11;;;;;;;24.10;6.65;;;;;;;;;;5003344;28;20513;-65
2023/10/18 08:54:41;;;;;;;21.77;6.43;;;;;;;;;;5007458;28;20052;-65
2023/10/18 08:57:11;;;;;;;18.35;6.05;;;;;;;;;;5023896;28;20025;-67
2023/10/18 08:59:47;;;;;;;26.50;6.63;;;;;;;;;;5005962;28;20540;-67
2023/10/18 09:02:23;;;;;;;20.33;5.13;;;;;;;;;;5020296;28;20460;-66
2023/10/18 09:04:54;;;;;;;23.75;6.15;;;;;;;;;;5009446;28;20219;-65
2023/10/18 09:10:13;;;;;;;23.27;6.73;;;;;;;;;;5024125;28;20533;-68
2023/10/18 09:17:56;;;;;;;20.30;6.07;;;;;;;;;;5024729;28;20399;-66
2023/10/18 09:20:25;;;;;;;23.80;6.78;;;;;;;;;;5018888;28;20422;-68
2023/10/18 09:22:52;;;;;;;22.45;6.70;;;;;;;;;;5021554;28;20038;-67
2023/10/18 09:25:20;;;;;;;24.67;6.45;;;;;;;;;;4998843;28;20031;-68
2023/10/18 09:27:46;;;;;;;18.15;6.72;;;;;;;;;;5007662;28;20377;-66
2023/10/18 09:30:18;;;;;;;20.77;6.68;;;;;;;;;;5023431;28;20500;-66
2023/10/18 09:32:49;;;;;;;22.75;6.07;;;;;;;;;;5009906;28;20025;-67
2023/10/18 09:35:25;;;;;;;19.73;6.45;;;;;;;;;;5020808;28;20036;-66
2023/10/18 09:37:52;;;;;;;21.58;6.28;;;;;;;;;;5024413;28;20028;-67
2023/10/18 09:40:18;;;;;;;23.30;6.65;;;;;;;;;;5019739;28;20032;-66
2023/10/18 09:42:45;;;;;;;22.75;6.20;;;;;;;;;;5024141;28;20092;-67
2023/10/18 09:45:13;;;;;;;24.80;7.07;;;;;;;;;;5006735;28;20078;-67
2023/10/18 09:47:41;;;;;;;23.70;7.28;;;;;;;;;;5003981;28;20076;-67
2023/10/18 09:50:09;;;;;;;23.83;7.45;;;;;;;;;;5020384;28;20029;-67
2023/10/18 09:52:47;;;;;;;24.23;7.40;;;;;;;;;;5026441;28;20036;-67
2023/10/18 09:55:17;;;;;;;22.98;7.47;;;;;;;;;;5020728;28;20136;-71
2023/10/18 09:57:49;;;;;;;23.02;7.75;;;;;;;;;;5004930;28;20127;-66
2023/10/18 10:00:16;;;;;;;24.02;8.02;;;;;;;;;;5017388;28;20036;-65
2023/10/18 10:02:52;;;;;;;21.52;7.35;;;;;;;;;;5025999;28;20112;-65
2023/10/18 10:05:25;;;;;;;23.77;7.30;;;;;;;;;;5019032;28;20071;-64
2023/10/18 10:08:00;;;;;;;19.63;6.13;;;;;;;;;;5024432;28;20111;-64
2023/10/18 10:10:45;;;;;;;24.65;6.70;;;;;;;;;;5018967;28;20021;-65
2023/10/18 10:13:25;;;;;;;26.38;6.90;;;;;;;;;;5020998;28;20039;-64
2023/10/18 10:16:03;;;;;;;23.42;6.57;;;;;;;;;;5003607;28;20025;-65
2023/10/18 10:18:32;;;;;;;24.63;7.40;;;;;;;;;;5023240;28;20699;-63
2023/10/18 10:20:58;;;;;;;25.25;6.95;;;;;;;;;;5024548;28;20028;-65
2023/10/18 10:23:25;;;;;;;25.95;6.90;;;;;;;;;;5019687;28;20049;-63
2023/10/18 10:26:11;;;;;;;21.90;8.07;;;;;;;;;;5027693;28;20265;-64
2023/10/18 10:31:56;;;;;;;25.10;6.80;;;;;;;;;;4943893;28;20042;-65
2023/10/18 10:34:26;;;;;;;20.85;6.40;;;;;;;;;;4940776;28;20083;-63
2023/10/18 10:36:52;;;;;;;20.83;5.35;;;;;;;;;;4947121;28;20070;-64
2023/10/18 10:39:30;;;;;;;22.40;6.55;;;;;;;;;;4937396;28;20039;-64
2023/10/18 10:42:08;;;;;;;25.08;6.65;;;;;;;;;;4943407;28;20105;-63
2023/10/18 10:44:54;;;;;;;23.98;7.90;;;;;;;;;;4943573;28;20034;-63
2023/10/18 10:47:30;;;;;;;21.40;7.53;;;;;;;;;;4940675;28;20390;-63
2023/10/18 10:50:00;;;;;;;20.65;6.28;;;;;;;;;;4947791;28;20130;-63
2023/10/18 10:52:30;;;;;;;25.17;8.10;;;;;;;;;;4942589;28;20038;-63
2023/10/18 10:55:04;;;;;;;21.35;6.25;;;;;;;;;;4947211;28;20539;-63
2023/10/18 10:57:43;;;;;;;24.50;5.97;;;;;;;;;;4942797;28;20071;-62
2023/10/18 11:02:54;;;;;;;22.80;5.47;;;;;;;;;;4946331;28;20742;-69
2023/10/18 11:05:26;;;;;;;18.25;5.60;;;;;;;;;;4944261;28;20038;-67
2023/10/18 11:07:57;;;;;;;19.40;5.35;;;;;;;;;;4961603;28;20427;-67
2023/10/18 11:10:23;;;;;;;21.85;6.00;;;;;;;;;;5021876;28;20520;-67
2023/10/18 11:12:49;;;;;;;18.38;5.22;;;;;;;;;;5030541;28;20115;-66
2023/10/18 11:15:18;;;;;;;25.60;5.95;;;;;;;;;;5022924;28;20498;-67
2023/10/18 11:17:47;;;;;;;22.63;5.45;;;;;;;;;;5026989;28;20246;-69
2023/10/18 11:20:29;;;;;;;16.90;4.80;;;;;;;;;;4999484;28;20098;-69
2023/10/18 11:22:56;;;;;;;18.58;4.97;;;;;;;;;;5027216;28;20077;-67
2023/10/18 11:25:30;;;;;;;17.85;5.05;;;;;;;;;;5027266;28;20135;-67
2023/10/18 11:28:17;;;;;;;24.83;5.15;;;;;;;;;;5022335;28;20057;-67
2023/10/18 11:30:43;;;;;;;23.92;4.72;;;;;;;;;;5025766;28;20474;-66
2023/10/18 11:33:16;;;;;;;19.98;5.00;;;;;;;;;;5022793;28;20032;-67
2023/10/18 11:35:48;;;;;;;16.63;5.22;;;;;;;;;;5026611;28;20037;-67
2023/10/18 11:38:19;;;;;;;19.48;5.40;;;;;;;;;;5024251;28;20022;-67
2023/10/18 11:40:50;;;;;;;20.77;4.63;;;;;;;;;;5008420;28;20513;-70
2023/10/18 11:43:25;;;;;;;20.75;5.22;;;;;;;;;;5024911;28;20383;-67
2023/10/18 11:46:05;;;;;;;20.20;4.63;;;;;;;;;;5010953;28;20151;-66
2023/10/18 11:48:35;;;;;;;21.55;5.07;;;;;;;;;;5022161;28;20025;-67
2023/10/18 11:51:06;;;;;;;20.27;5.68;;;;;;;;;;5028022;28;20104;-68
2023/10/18 11:53:33;;;;;;;17.05;4.63;;;;;;;;;;5025317;28;20036;-67
2023/10/18 11:56:00;;;;;;;20.40;4.55;;;;;;;;;;5025020;28;20086;-67
2023/10/18 11:58:28;;;;;;;21.70;4.53;;;;;;;;;;5024148;28;20290;-67
2023/10/18 12:01:00;;;;;;;20.75;5.00;;;;;;;;;;5024636;28;20806;-67
2023/10/18 12:03:27;;;;;;;15.68;3.85;;;;;;;;;;5020803;28;20469;-67
2023/10/18 12:05:57;;;;;;;17.98;4.00;;;;;;;;;;5008965;28;20029;-66
2023/10/18 12:08:24;;;;;;;14.30;3.25;;;;;;;;;;5022919;28;20072;-67
2023/10/18 12:10:52;;;;;;;12.27;2.90;;;;;;;;;;5021235;28;20041;-67
2023/10/18 12:13:20;;;;;;;14.90;2.80;;;;;;;;;;5001914;28;20585;-67
2023/10/18 12:15:47;;;;;;;11.70;2.58;;;;;;;;;;5022911;28;20029;-68
2023/10/18 12:18:16;;;;;;;14.20;2.75;;;;;;;;;;5020845;28;20021;-66
2023/10/18 12:20:43;;;;;;;11.45;2.38;;;;;;;;;;5005785;28;20047;-67
2023/10/18 12:23:10;;;;;;;11.27;2.50;;;;;;;;;;5022351;28;20438;-67
2023/10/18 12:25:38;;;;;;;11.25;2.60;;;;;;;;;;5027321;28;20082;-68
2023/10/18 12:28:07;;;;;;;9.38;2.28;;;;;;;;;;5024190;28;20025;-67
2023/10/18 12:30:38;;;;;;;11.00;2.83;;;;;;;;;;5023879;28;20044;-67
2023/10/18 12:33:06;;;;;;;14.88;3.35;;;;;;;;;;5023903;28;20098;-67
2023/10/18 12:35:32;;;;;;;11.05;2.42;;;;;;;;;;5001049;28;20035;-67
2023/10/18 12:37:59;;;;;;;16.25;2.70;;;;;;;;;;5023837;28;20032;-67
2023/10/18 12:40:28;;;;;;;11.27;2.80;;;;;;;;;;5017700;28;20072;-68
2023/10/18 12:42:58;;;;;;;14.82;3.33;;;;;;;;;;5022206;28;20029;-67
2023/10/18 12:45:24;;;;;;;12.90;2.72;;;;;;;;;;5020153;28;20025;-67
2023/10/18 12:47:51;;;;;;;15.52;2.83;;;;;;;;;;5005117;28;21928;-66
2023/10/18 12:50:18;;;;;;;10.88;2.95;;;;;;;;;;5024331;28;20723;-68
2023/10/18 12:52:44;;;;;;;14.77;3.28;;;;;;;;;;5000567;28;20481;-69
2023/10/18 12:57:56;;;;;;;13.10;2.88;;;;;;;;;;5024056;28;20055;-66
2023/10/18 13:00:25;;;;;;;12.63;2.95;;;;;;;;;;5019333;28;20032;-67
2023/10/18 13:05:22;;;;;;;13.32;2.70;;;;;;;;;;5020186;28;20032;-68
2023/10/18 13:07:55;;;;;;;11.68;3.10;;;;;;;;;;5021983;28;20060;-68
2023/10/18 13:10:29;;;;;;;10.20;2.55;;;;;;;;;;5018399;28;20114;-67
2023/10/18 13:12:56;;;;;;;10.60;2.22;;;;;;;;;;5021050;28;20284;-67
2023/10/18 13:15:22;;;;;;;11.63;2.97;;;;;;;;;;5020519;28;20029;-67
2023/10/18 13:17:49;;;;;;;11.13;2.67;;;;;;;;;;5006788;28;20399;-67
2023/10/18 13:20:15;;;;;;;11.20;2.33;;;;;;;;;;5021388;28;20152;-67
2023/10/18 13:22:44;;;;;;;8.98;2.10;;;;;;;;;;5022732;28;20040;-66
2023/10/18 13:25:25;;;;;;;12.85;2.92;;;;;;;;;;5018346;28;20585;-68
2023/10/18 13:27:52;;;;;;;12.02;3.15;;;;;;;;;;5022127;28;20074;-67
2023/10/18 13:30:39;;;;;;;12.80;2.53;;;;;;;;;;5019715;28;20032;-67
2023/10/18 13:33:11;;;;;;;13.35;2.50;;;;;;;;;;5021096;28;20103;-67
2023/10/18 13:35:44;;;;;;;12.30;2.70;;;;;;;;;;5003807;28;20582;-67
2023/10/18 13:38:11;;;;;;;10.95;2.35;;;;;;;;;;5016189;28;20036;-66
2023/10/18 13:40:43;;;;;;;13.93;2.80;;;;;;;;;;5020663;28;20483;-67
2023/10/18 13:43:12;;;;;;;11.75;2.30;;;;;;;;;;5020756;28;20056;-67
2023/10/18 13:45:41;;;;;;;11.13;2.35;;;;;;;;;;5022487;28;20064;-66
2023/10/18 13:48:08;;;;;;;12.95;2.75;;;;;;;;;;5001423;28;20032;-67
2023/10/18 13:50:37;;;;;;;11.20;2.28;;;;;;;;;;5014988;28;20080;-68
2023/10/18 13:53:04;;;;;;;9.70;1.95;;;;;;;;;;5007073;28;20816;-70
2023/10/18 13:55:30;;;;;;;8.60;1.90;;;;;;;;;;5020061;28;20040;-69
2023/10/18 13:57:57;;;;;;;11.02;1.98;;;;;;;;;;5020984;28;20604;-67
2023/10/18 14:00:24;;;;;;;10.27;1.85;;;;;;;;;;5019578;28;20657;-67
2023/10/18 14:02:53;;;;;;;8.35;2.22;;;;;;;;;;5023400;28;20104;-68
2023/10/18 14:05:21;;;;;;;10.32;2.13;;;;;;;;;;5001951;28;20297;-67
2023/10/18 14:07:48;;;;;;;8.30;1.90;;;;;;;;;;5003600;28;20017;-68
2023/10/18 14:10:27;;;;;;;8.25;1.90;;;;;;;;;;5015105;28;20036;-69
2023/10/18 14:12:53;;;;;;;9.52;1.70;;;;;;;;;;5020783;28;20028;-68
2023/10/18 14:15:20;;;;;;;7.00;1.42;;;;;;;;;;5001824;28;20410;-67
2023/10/18 14:17:46;;;;;;;7.97;1.83;;;;;;;;;;5019060;28;20035;-68
2023/10/18 14:20:13;;;;;;;8.10;1.88;;;;;;;;;;5020776;28;20037;-69
2023/10/18 14:22:40;;;;;;;9.75;1.90;;;;;;;;;;5019204;28;20301;-69
2023/10/18 14:25:13;;;;;;;8.32;1.83;;;;;;;;;;5016448;28;20670;-67
2023/10/18 14:27:40;;;;;;;8.48;1.70;;;;;;;;;;5019867;28;20090;-68
2023/10/18 14:30:12;;;;;;;10.40;1.80;;;;;;;;;;4998933;28;20057;-68
2023/10/18 14:32:39;;;;;;;8.00;1.98;;;;;;;;;;5003826;28;20613;-67
2023/10/18 14:35:06;;;;;;;10.80;2.30;;;;;;;;;;5019312;28;20029;-67
2023/10/18 14:37:33;;;;;;;7.03;1.90;;;;;;;;;;5018408;28;20359;-68
2023/10/18 14:39:59;;;;;;;10.45;1.88;;;;;;;;;;5003768;28;20072;-67
2023/10/18 14:42:28;;;;;;;7.50;1.77;;;;;;;;;;5019387;28;20021;-67
2023/10/18 14:44:57;;;;;;;8.75;2.20;;;;;;;;;;5008432;28;20028;-67
2023/10/18 14:47:24;;;;;;;8.15;2.20;;;;;;;;;;5000675;28;20215;-68
2023/10/18 14:49:50;;;;;;;8.73;2.25;;;;;;;;;;5018895;28;20037;-67
2023/10/18 14:52:20;;;;;;;8.32;2.28;;;;;;;;;;5019366;28;20025;-67
2023/10/18 14:54:46;;;;;;;8.23;2.58;;;;;;;;;;5020676;28;20040;-67
2023/10/18 14:57:16;;;;;;;7.53;2.03;;;;;;;;;;5018665;28;20075;-66
2023/10/18 14:59:43;;;;;;;10.25;2.63;;;;;;;;;;5021824;28;20461;-67
2023/10/18 15:02:12;;;;;;;8.32;2.55;;;;;;;;;;5016352;28;20033;-66
2023/10/18 15:04:38;;;;;;;7.80;2.50;;;;;;;;;;5023117;28;20514;-66
2023/10/18 15:07:05;;;;;;;10.45;2.67;;;;;;;;;;5018653;28;20095;-67
2023/10/18 15:09:31;;;;;;;8.73;3.08;;;;;;;;;;5017748;28;20184;-67
2023/10/18 15:11:57;;;;;;;10.57;3.30;;;;;;;;;;5023086;28;20059;-68
2023/10/18 15:14:23;;;;;;;9.88;2.90;;;;;;;;;;4998281;28;20037;-67
2023/10/18 15:16:49;;;;;;;11.60;3.28;;;;;;;;;;5019901;28;20474;-67
2023/10/18 15:19:15;;;;;;;9.73;2.92;;;;;;;;;;5017588;28;20036;-66
2023/10/18 15:21:42;;;;;;;9.52;2.47;;;;;;;;;;5021387;28;20037;-66
2023/10/18 15:24:08;;;;;;;8.40;2.30;;;;;;;;;;4998910;28;20434;-67
2023/10/18 15:26:38;;;;;;;7.22;2.00;;;;;;;;;;5021318;28;20131;-67
2023/10/18 15:29:08;;;;;;;8.07;1.75;;;;;;;;;;5021154;28;20143;-68
2023/10/18 15:31:34;;;;;;;7.40;1.80;;;;;;;;;;5018530;28;20037;-67
2023/10/18 15:34:00;;;;;;;6.22;1.42;;;;;;;;;;5020578;28;20075;-68
2023/10/18 15:36:26;;;;;;;7.75;1.40;;;;;;;;;;5021717;28;20052;-67
2023/10/18 15:38:56;;;;;;;7.93;1.67;;;;;;;;;;5025878;28;20417;-68
2023/10/18 15:41:26;;;;;;;8.27;1.45;;;;;;;;;;5022017;28;20032;-67